sensor_id;sensor_type;location;lat;lon;timestamp;pressure;altitude;pressure_sealevel;temperature;humidity
12077;BME280;12420;42.676;23.262;2023-08-21T00:01:58;94852.13;;;22.81;77.13
12077;BME280;12420;42.676;23.262;2023-08-21T00:04:25;94891.94;;;23.07;76.78
12077;BME280;12420;42.676;23.262;2023-08-21T00:06:56;94951.53;;;23.66;76.92
12077;BME280;12420;42.676;23.262;2023-08-21T00:09:23;94894.16;;;23.30;77.24
12077;BME280;12420;42.676;23.262;2023-08-21T00:11:50;94930.09;;;23.51;77.33
12077;BME280;12420;42.676;23.262;2023-08-21T00:14:18;94947.84;;;23.63;77.11
12077;BME280;12420;42.676;23.262;2023-08-21T00:16:45;94878.34;;;22.93;77.04
12077;BME280;12420;42.676;23.262;2023-08-21T00:19:12;94854.28;;;22.71;76.99
12077;BME280;12420;42.676;23.262;2023-08-21T00:21:39;94895.25;;;23.03;77.33
12077;BME280;12420;42.676;23.262;2023-08-21T00:24:06;94866.94;;;22.91;77.20
12077;BME280;12420;42.676;23.262;2023-08-21T00:26:35;94932.47;;;23.33;76.51
12077;BME280;12420;42.676;23.262;2023-08-21T00:29:02;94944.84;;;23.49;77.18
12077;BME280;12420;42.676;23.262;2023-08-21T00:31:32;94944.50;;;23.55;77.84
12077;BME280;12420;42.676;23.262;2023-08-21T00:33:59;94941.16;;;23.47;77.91
12077;BME280;12420;42.676;23.262;2023-08-21T00:36:26;94878.84;;;23.11;77.61
12077;BME280;12420;42.676;23.262;2023-08-21T00:38:52;94950.63;;;23.51;78.24
12077;BME280;12420;42.676;23.262;2023-08-21T00:41:26;94914.34;;;23.14;78.50
12077;BME280;12420;42.676;23.262;2023-08-21T00:43:53;94887.13;;;22.98;78.55
12077;BME280;12420;42.676;23.262;2023-08-21T00:46:20;94954.84;;;23.40;78.63
12077;BME280;12420;42.676;23.262;2023-08-21T00:48:49;94903.56;;;22.80;78.97
12077;BME280;12420;42.676;23.262;2023-08-21T00:51:16;94964.91;;;23.32;78.48
12077;BME280;12420;42.676;23.262;2023-08-21T00:53:44;94931.75;;;23.11;78.71
12077;BME280;12420;42.676;23.262;2023-08-21T00:56:11;94949.56;;;23.13;78.54
12077;BME280;12420;42.676;23.262;2023-08-21T00:58:41;94944.94;;;23.18;78.74
12077;BME280;12420;42.676;23.262;2023-08-21T01:01:08;94931.31;;;22.83;79.10
12077;BME280;12420;42.676;23.262;2023-08-21T01:03:35;94898.44;;;22.88;78.80
12077;BME280;12420;42.676;23.262;2023-08-21T01:06:04;94905.06;;;22.71;78.99
12077;BME280;12420;42.676;23.262;2023-08-21T01:08:38;94853.31;;;22.35;79.07
12077;BME280;12420;42.676;23.262;2023-08-21T01:11:14;94920.41;;;22.89;79.07
12077;BME280;12420;42.676;23.262;2023-08-21T01:13:50;94963.06;;;23.15;79.18
12077;BME280;12420;42.676;23.262;2023-08-21T01:16:19;94950.22;;;22.71;79.69
12077;BME280;12420;42.676;23.262;2023-08-21T01:18:47;94841.94;;;22.23;80.07
12077;BME280;12420;42.676;23.262;2023-08-21T01:21:17;94959.56;;;23.05;80.42
12077;BME280;12420;42.676;23.262;2023-08-21T01:23:46;94924.78;;;22.81;80.63
12077;BME280;12420;42.676;23.262;2023-08-21T01:26:13;94870.56;;;22.29;80.57
12077;BME280;12420;42.676;23.262;2023-08-21T01:28:39;94957.81;;;23.00;80.10
12077;BME280;12420;42.676;23.262;2023-08-21T01:31:10;94955.28;;;22.94;80.37
12077;BME280;12420;42.676;23.262;2023-08-21T01:33:44;94976.41;;;22.93;80.65
12077;BME280;12420;42.676;23.262;2023-08-21T01:36:13;94882.53;;;22.40;80.68
12077;BME280;12420;42.676;23.262;2023-08-21T01:38:41;94946.16;;;22.84;80.78
12077;BME280;12420;42.676;23.262;2023-08-21T01:41:11;94942.59;;;22.83;80.47
12077;BME280;12420;42.676;23.262;2023-08-21T01:43:38;94957.06;;;22.99;80.46
12077;BME280;12420;42.676;23.262;2023-08-21T01:46:06;94959.56;;;23.05;80.04
12077;BME280;12420;42.676;23.262;2023-08-21T01:48:34;94890.81;;;22.47;80.62
12077;BME280;12420;42.676;23.262;2023-08-21T01:51:01;94962.59;;;22.97;81.11
12077;BME280;12420;42.676;23.262;2023-08-21T01:53:28;94861.06;;;22.25;81.07
12077;BME280;12420;42.676;23.262;2023-08-21T01:55:55;94946.88;;;22.84;81.02
12077;BME280;12420;42.676;23.262;2023-08-21T01:58:24;94963.56;;;22.80;81.18
12077;BME280;12420;42.676;23.262;2023-08-21T02:00:50;94955.69;;;22.79;81.09
12077;BME280;12420;42.676;23.262;2023-08-21T02:03:17;94930.06;;;22.65;81.32
12077;BME280;12420;42.676;23.262;2023-08-21T02:05:47;94951.09;;;22.73;81.60
12077;BME280;12420;42.676;23.262;2023-08-21T02:08:14;94932.75;;;22.63;81.81
12077;BME280;12420;42.676;23.262;2023-08-21T02:10:51;94940.59;;;22.64;82.28
12077;BME280;12420;42.676;23.262;2023-08-21T02:13:18;94941.22;;;22.63;82.14
12077;BME280;12420;42.676;23.262;2023-08-21T02:15:47;94874.88;;;22.21;81.99
12077;BME280;12420;42.676;23.262;2023-08-21T02:18:13;94923.13;;;22.56;81.98
12077;BME280;12420;42.676;23.262;2023-08-21T02:20:43;94948.41;;;22.75;81.87
12077;BME280;12420;42.676;23.262;2023-08-21T02:23:13;94946.75;;;22.82;81.69
12077;BME280;12420;42.676;23.262;2023-08-21T02:25:41;94954.63;;;22.84;81.83
12077;BME280;12420;42.676;23.262;2023-08-21T02:28:08;94917.75;;;22.60;81.67
12077;BME280;12420;42.676;23.262;2023-08-21T02:30:34;94971.84;;;22.88;81.66
12077;BME280;12420;42.676;23.262;2023-08-21T02:33:03;94830.06;;;22.15;81.61
12077;BME280;12420;42.676;23.262;2023-08-21T02:35:30;94943.00;;;22.89;81.63
12077;BME280;12420;42.676;23.262;2023-08-21T02:37:57;94924.53;;;22.67;81.44
12077;BME280;12420;42.676;23.262;2023-08-21T02:40:24;94975.94;;;22.96;81.18
12077;BME280;12420;42.676;23.262;2023-08-21T02:42:51;94918.78;;;22.65;81.19
12077;BME280;12420;42.676;23.262;2023-08-21T02:45:18;94947.56;;;22.94;81.35
12077;BME280;12420;42.676;23.262;2023-08-21T02:47:45;94913.97;;;22.77;80.68
12077;BME280;12420;42.676;23.262;2023-08-21T02:50:14;94941.91;;;22.94;81.07
12077;BME280;12420;42.676;23.262;2023-08-21T02:52:40;94855.16;;;22.21;80.75
12077;BME280;12420;42.676;23.262;2023-08-21T02:55:08;94943.00;;;22.89;80.87
12077;BME280;12420;42.676;23.262;2023-08-21T02:57:35;94973.91;;;22.87;81.77
12077;BME280;12420;42.676;23.262;2023-08-21T03:00:02;94982.25;;;22.85;82.00
12077;BME280;12420;42.676;23.262;2023-08-21T03:02:29;94871.91;;;22.19;82.33
12077;BME280;12420;42.676;23.262;2023-08-21T03:04:57;94946.34;;;22.76;82.04
12077;BME280;12420;42.676;23.262;2023-08-21T03:07:25;94852.22;;;22.09;83.02
12077;BME280;12420;42.676;23.262;2023-08-21T03:09:52;94844.31;;;21.76;83.50
12077;BME280;12420;42.676;23.262;2023-08-21T03:12:20;94941.63;;;22.28;83.86
12077;BME280;12420;42.676;23.262;2023-08-21T03:14:47;94867.44;;;21.75;84.86
12077;BME280;12420;42.676;23.262;2023-08-21T03:17:14;94901.22;;;21.94;85.15
12077;BME280;12420;42.676;23.262;2023-08-21T03:19:41;94947.44;;;22.30;85.99
12077;BME280;12420;42.676;23.262;2023-08-21T03:22:09;94935.00;;;22.14;86.13
12077;BME280;12420;42.676;23.262;2023-08-21T03:24:37;94878.91;;;21.57;86.70
12077;BME280;12420;42.676;23.262;2023-08-21T03:27:05;94971.91;;;22.18;86.79
12077;BME280;12420;42.676;23.262;2023-08-21T03:29:33;94975.63;;;22.10;87.35
12077;BME280;12420;42.676;23.262;2023-08-21T03:32:00;94974.91;;;22.10;86.97
12077;BME280;12420;42.676;23.262;2023-08-21T03:34:27;94936.84;;;21.80;87.56
12077;BME280;12420;42.676;23.262;2023-08-21T03:36:55;94956.53;;;21.89;87.38
12077;BME280;12420;42.676;23.262;2023-08-21T03:39:21;94973.69;;;22.13;87.62
12077;BME280;12420;42.676;23.262;2023-08-21T03:41:50;94977.59;;;21.98;87.60
12077;BME280;12420;42.676;23.262;2023-08-21T03:44:17;94969.41;;;22.12;87.99
12077;BME280;12420;42.676;23.262;2023-08-21T03:46:46;94914.59;;;21.74;87.85
12077;BME280;12420;42.676;23.262;2023-08-21T03:49:13;94936.97;;;21.82;87.78
12077;BME280;12420;42.676;23.262;2023-08-21T03:51:40;94983.19;;;22.18;87.33
12077;BME280;12420;42.676;23.262;2023-08-21T03:54:07;94919.78;;;21.78;87.40
12077;BME280;12420;42.676;23.262;2023-08-21T03:56:34;94979.97;;;22.02;87.95
12077;BME280;12420;42.676;23.262;2023-08-21T03:59:03;94955.00;;;22.18;87.49
12077;BME280;12420;42.676;23.262;2023-08-21T04:01:30;94946.72;;;22.10;87.51
12077;BME280;12420;42.676;23.262;2023-08-21T04:03:57;94937.81;;;22.14;86.77
12077;BME280;12420;42.676;23.262;2023-08-21T04:06:24;94896.94;;;21.83;87.03
12077;BME280;12420;42.676;23.262;2023-08-21T04:08:51;94966.25;;;22.37;86.79
12077;BME280;12420;42.676;23.262;2023-08-21T04:11:17;94975.56;;;22.49;85.67
12077;BME280;12420;42.676;23.262;2023-08-21T04:13:44;94961.22;;;22.36;85.01
12077;BME280;12420;42.676;23.262;2023-08-21T04:16:12;94959.75;;;22.25;85.27
12077;BME280;12420;42.676;23.262;2023-08-21T04:18:40;94980.91;;;22.45;84.48
12077;BME280;12420;42.676;23.262;2023-08-21T04:21:07;94987.44;;;22.48;85.90
12077;BME280;12420;42.676;23.262;2023-08-21T04:23:34;94936.75;;;22.19;85.73
12077;BME280;12420;42.676;23.262;2023-08-21T04:26:01;94965.97;;;22.33;86.93
12077;BME280;12420;42.676;23.262;2023-08-21T04:28:32;94984.25;;;22.63;86.74
12077;BME280;12420;42.676;23.262;2023-08-21T04:30:59;94866.25;;;21.78;85.74
12077;BME280;12420;42.676;23.262;2023-08-21T04:33:29;94925.44;;;22.38;85.51
12077;BME280;12420;42.676;23.262;2023-08-21T04:35:56;94986.69;;;22.88;85.79
12077;BME280;12420;42.676;23.262;2023-08-21T04:38:23;94904.41;;;22.29;86.10
12077;BME280;12420;42.676;23.262;2023-08-21T04:40:50;94871.97;;;21.99;86.17
12077;BME280;12420;42.676;23.262;2023-08-21T04:43:17;94934.44;;;22.46;86.28
12077;BME280;12420;42.676;23.262;2023-08-21T04:45:48;94986.81;;;23.00;85.17
12077;BME280;12420;42.676;23.262;2023-08-21T04:48:16;94996.91;;;23.25;84.54
12077;BME280;12420;42.676;23.262;2023-08-21T04:50:45;94999.66;;;23.34;83.02
12077;BME280;12420;42.676;23.262;2023-08-21T04:53:13;94982.56;;;23.32;84.04
12077;BME280;12420;42.676;23.262;2023-08-21T04:55:44;95003.38;;;23.58;83.32
12077;BME280;12420;42.676;23.262;2023-08-21T04:58:10;95000.16;;;23.74;81.06
12077;BME280;12420;42.676;23.262;2023-08-21T05:00:37;94960.78;;;23.45;80.84
12077;BME280;12420;42.676;23.262;2023-08-21T05:03:06;94972.88;;;23.57;81.51
12077;BME280;12420;42.676;23.262;2023-08-21T05:05:35;94952.41;;;23.13;82.03
12077;BME280;12420;42.676;23.262;2023-08-21T05:08:04;94909.41;;;23.15;80.94
12077;BME280;12420;42.676;23.262;2023-08-21T05:10:31;94925.47;;;23.12;80.39
12077;BME280;12420;42.676;23.262;2023-08-21T05:12:57;95023.06;;;23.90;79.27
12077;BME280;12420;42.676;23.262;2023-08-21T05:15:24;95004.09;;;23.59;80.21
12077;BME280;12420;42.676;23.262;2023-08-21T05:17:52;94963.88;;;23.27;80.02
12077;BME280;12420;42.676;23.262;2023-08-21T05:20:19;94896.16;;;22.96;80.67
12077;BME280;12420;42.676;23.262;2023-08-21T05:22:46;95020.78;;;23.98;80.48
12077;BME280;12420;42.676;23.262;2023-08-21T05:25:14;95006.97;;;23.92;80.20
12077;BME280;12420;42.676;23.262;2023-08-21T05:27:41;95027.84;;;24.20;79.32
12077;BME280;12420;42.676;23.262;2023-08-21T05:30:09;95025.31;;;24.36;79.70
12077;BME280;12420;42.676;23.262;2023-08-21T05:32:37;94991.53;;;24.05;77.95
12077;BME280;12420;42.676;23.262;2023-08-21T05:35:05;94948.34;;;23.93;77.38
12077;BME280;12420;42.676;23.262;2023-08-21T05:37:34;95035.25;;;24.71;76.85
12077;BME280;12420;42.676;23.262;2023-08-21T05:40:02;95049.28;;;24.80;75.63
12077;BME280;12420;42.676;23.262;2023-08-21T05:42:32;94914.84;;;24.11;74.60
12077;BME280;12420;42.676;23.262;2023-08-21T05:44:59;94952.03;;;24.52;73.28
12077;BME280;12420;42.676;23.262;2023-08-21T05:47:26;94999.56;;;24.89;73.44
12077;BME280;12420;42.676;23.262;2023-08-21T05:49:53;95039.84;;;25.23;73.33
12077;BME280;12420;42.676;23.262;2023-08-21T05:52:21;94920.19;;;24.63;72.22
12077;BME280;12420;42.676;23.262;2023-08-21T05:54:48;94967.31;;;24.94;72.15
12077;BME280;12420;42.676;23.262;2023-08-21T05:57:15;94991.44;;;25.19;71.69
12077;BME280;12420;42.676;23.262;2023-08-21T05:59:45;95027.34;;;25.63;70.74
12077;BME280;12420;42.676;23.262;2023-08-21T06:02:17;94977.72;;;25.50;70.11
12077;BME280;12420;42.676;23.262;2023-08-21T06:04:45;95000.69;;;25.80;69.31
12077;BME280;12420;42.676;23.262;2023-08-21T06:07:12;95015.00;;;26.08;68.50
12077;BME280;12420;42.676;23.262;2023-08-21T06:09:39;95020.00;;;26.21;68.17
12077;BME280;12420;42.676;23.262;2023-08-21T06:12:06;94992.66;;;25.88;68.68
12077;BME280;12420;42.676;23.262;2023-08-21T06:14:34;94984.34;;;25.92;67.49
12077;BME280;12420;42.676;23.262;2023-08-21T06:17:04;94912.09;;;25.68;66.63
12077;BME280;12420;42.676;23.262;2023-08-21T06:19:32;95033.09;;;26.40;65.96
12077;BME280;12420;42.676;23.262;2023-08-21T06:21:59;94981.28;;;26.39;65.41
12077;BME280;12420;42.676;23.262;2023-08-21T06:24:26;95040.41;;;26.82;64.99
12077;BME280;12420;42.676;23.262;2023-08-21T06:26:53;94914.22;;;25.93;65.33
12077;BME280;12420;42.676;23.262;2023-08-21T06:29:20;95031.56;;;26.76;64.17
12077;BME280;12420;42.676;23.262;2023-08-21T06:31:47;95046.66;;;27.06;65.03
12077;BME280;12420;42.676;23.262;2023-08-21T06:34:15;95074.69;;;27.26;64.29
12077;BME280;12420;42.676;23.262;2023-08-21T06:36:42;94992.13;;;26.96;61.34
12077;BME280;12420;42.676;23.262;2023-08-21T06:39:09;94960.03;;;26.94;61.13
12077;BME280;12420;42.676;23.262;2023-08-21T06:41:36;94990.38;;;27.31;61.43
12077;BME280;12420;42.676;23.262;2023-08-21T06:44:03;95013.75;;;27.43;59.50
12077;BME280;12420;42.676;23.262;2023-08-21T06:46:30;95026.56;;;27.71;58.46
12077;BME280;12420;42.676;23.262;2023-08-21T06:48:57;95042.34;;;27.88;58.08
12077;BME280;12420;42.676;23.262;2023-08-21T06:51:25;95045.72;;;27.99;58.10
12077;BME280;12420;42.676;23.262;2023-08-21T06:53:54;95030.72;;;27.98;57.78
12077;BME280;12420;42.676;23.262;2023-08-21T06:56:21;95041.75;;;28.20;56.54
12077;BME280;12420;42.676;23.262;2023-08-21T06:58:48;95071.44;;;28.30;56.44
12077;BME280;12420;42.676;23.262;2023-08-21T07:01:15;95041.44;;;28.13;56.52
12077;BME280;12420;42.676;23.262;2023-08-21T07:03:42;94946.03;;;27.53;56.24
12077;BME280;12420;42.676;23.262;2023-08-21T07:06:09;95032.94;;;28.00;56.34
12077;BME280;12420;42.676;23.262;2023-08-21T07:08:38;95021.44;;;28.11;54.12
12077;BME280;12420;42.676;23.262;2023-08-21T07:11:06;95033.44;;;28.40;54.66
12077;BME280;12420;42.676;23.262;2023-08-21T07:13:35;95028.06;;;28.46;54.13
12077;BME280;12420;42.676;23.262;2023-08-21T07:16:02;95045.16;;;28.62;53.60
12077;BME280;12420;42.676;23.262;2023-08-21T07:18:32;95041.44;;;28.73;52.56
12077;BME280;12420;42.676;23.262;2023-08-21T07:20:59;95041.25;;;28.69;53.08
12077;BME280;12420;42.676;23.262;2023-08-21T07:23:26;94958.72;;;28.09;52.72
12077;BME280;12420;42.676;23.262;2023-08-21T07:25:54;94985.66;;;28.22;53.08
12077;BME280;12420;42.676;23.262;2023-08-21T07:28:21;94972.25;;;28.25;52.05
12077;BME280;12420;42.676;23.262;2023-08-21T07:30:48;95026.72;;;28.63;52.35
12077;BME280;12420;42.676;23.262;2023-08-21T07:33:20;94936.81;;;28.28;51.08
12077;BME280;12420;42.676;23.262;2023-08-21T07:35:47;94912.13;;;28.17;50.41
12077;BME280;12420;42.676;23.262;2023-08-21T07:38:16;94958.91;;;28.59;50.75
12077;BME280;12420;42.676;23.262;2023-08-21T07:40:44;95057.81;;;29.04;51.62
12077;BME280;12420;42.676;23.262;2023-08-21T07:43:12;95039.19;;;29.17;50.13
12077;BME280;12420;42.676;23.262;2023-08-21T07:45:39;94967.34;;;28.57;50.85
12077;BME280;12420;42.676;23.262;2023-08-21T07:48:06;95026.56;;;29.22;50.39
12077;BME280;12420;42.676;23.262;2023-08-21T07:50:33;94981.88;;;29.27;49.68
12077;BME280;12420;42.676;23.262;2023-08-21T07:52:59;95023.94;;;29.60;49.64
12077;BME280;12420;42.676;23.262;2023-08-21T07:55:26;95019.59;;;29.59;49.13
12077;BME280;12420;42.676;23.262;2023-08-21T07:57:53;95056.03;;;29.76;49.00
12077;BME280;12420;42.676;23.262;2023-08-21T08:00:22;95036.88;;;29.79;48.56
12077;BME280;12420;42.676;23.262;2023-08-21T08:02:49;95019.31;;;29.69;48.61
12077;BME280;12420;42.676;23.262;2023-08-21T08:05:16;95014.91;;;29.66;48.56
12077;BME280;12420;42.676;23.262;2023-08-21T08:07:43;94950.94;;;29.37;49.38
12077;BME280;12420;42.676;23.262;2023-08-21T08:10:10;95039.34;;;29.86;48.24
12077;BME280;12420;42.676;23.262;2023-08-21T08:12:41;95029.44;;;30.05;49.20
12077;BME280;12420;42.676;23.262;2023-08-21T08:15:09;95035.22;;;30.07;47.45
12077;BME280;12420;42.676;23.262;2023-08-21T08:17:38;95032.59;;;30.14;49.13
12077;BME280;12420;42.676;23.262;2023-08-21T08:20:05;95026.72;;;30.10;48.77
12077;BME280;12420;42.676;23.262;2023-08-21T08:22:33;95020.69;;;30.01;48.77
12077;BME280;12420;42.676;23.262;2023-08-21T08:25:00;95020.94;;;29.90;49.88
12077;BME280;12420;42.676;23.262;2023-08-21T08:27:27;95038.00;;;30.23;48.37
12077;BME280;12420;42.676;23.262;2023-08-21T08:29:53;95002.53;;;30.28;47.67
12077;BME280;12420;42.676;23.262;2023-08-21T08:32:20;94927.81;;;29.29;47.78
12077;BME280;12420;42.676;23.262;2023-08-21T08:34:48;95014.69;;;30.29;47.28
12077;BME280;12420;42.676;23.262;2023-08-21T08:37:15;94967.03;;;29.98;47.12
12077;BME280;12420;42.676;23.262;2023-08-21T08:39:42;95001.41;;;30.36;47.36
12077;BME280;12420;42.676;23.262;2023-08-21T08:42:10;94979.50;;;30.42;45.68
12077;BME280;12420;42.676;23.262;2023-08-21T08:44:37;94999.81;;;30.68;44.23
12077;BME280;12420;42.676;23.262;2023-08-21T08:47:04;95006.97;;;30.69;44.16
12077;BME280;12420;42.676;23.262;2023-08-21T08:49:32;94973.00;;;30.40;43.96
12077;BME280;12420;42.676;23.262;2023-08-21T08:52:00;95011.16;;;30.66;44.74
12077;BME280;12420;42.676;23.262;2023-08-21T08:54:27;95002.25;;;30.76;44.42
12077;BME280;12420;42.676;23.262;2023-08-21T08:56:56;94983.16;;;30.63;44.73
12077;BME280;12420;42.676;23.262;2023-08-21T08:59:23;94917.84;;;30.17;44.07
12077;BME280;12420;42.676;23.262;2023-08-21T09:01:51;94935.72;;;30.36;42.72
12077;BME280;12420;42.676;23.262;2023-08-21T09:04:18;95026.91;;;31.05;42.21
12077;BME280;12420;42.676;23.262;2023-08-21T09:06:44;94958.41;;;30.69;42.92
12077;BME280;12420;42.676;23.262;2023-08-21T09:09:13;95005.22;;;30.98;42.72
12077;BME280;12420;42.676;23.262;2023-08-21T09:11:42;95008.38;;;31.06;43.00
12077;BME280;12420;42.676;23.262;2023-08-21T09:14:10;94955.28;;;30.81;42.23
12077;BME280;12420;42.676;23.262;2023-08-21T09:16:37;94994.03;;;31.04;41.41
12077;BME280;12420;42.676;23.262;2023-08-21T09:19:04;95006.31;;;31.29;40.99
12077;BME280;12420;42.676;23.262;2023-08-21T09:21:31;95025.91;;;31.36;41.42
12077;BME280;12420;42.676;23.262;2023-08-21T09:23:59;94885.72;;;30.75;41.62
12077;BME280;12420;42.676;23.262;2023-08-21T09:26:30;94969.59;;;31.41;41.84
12077;BME280;12420;42.676;23.262;2023-08-21T09:28:59;94995.63;;;31.49;41.92
12077;BME280;12420;42.676;23.262;2023-08-21T09:31:29;94975.59;;;31.49;41.68
12077;BME280;12420;42.676;23.262;2023-08-21T09:33:57;94903.34;;;31.07;39.26
12077;BME280;12420;42.676;23.262;2023-08-21T09:36:26;94881.25;;;30.69;38.85
12077;BME280;12420;42.676;23.262;2023-08-21T09:38:53;94936.16;;;31.26;38.38
12077;BME280;12420;42.676;23.262;2023-08-21T09:41:21;94977.09;;;31.50;39.45
12077;BME280;12420;42.676;23.262;2023-08-21T09:43:49;94971.88;;;31.25;39.50
12077;BME280;12420;42.676;23.262;2023-08-21T09:46:17;94997.09;;;31.30;39.99
12077;BME280;12420;42.676;23.262;2023-08-21T09:48:51;94946.28;;;31.09;41.20
12077;BME280;12420;42.676;23.262;2023-08-21T09:51:18;94941.94;;;31.28;39.05
12077;BME280;12420;42.676;23.262;2023-08-21T09:53:47;94944.38;;;31.15;40.35
12077;BME280;12420;42.676;23.262;2023-08-21T09:56:14;94924.72;;;31.06;39.54
12077;BME280;12420;42.676;23.262;2023-08-21T09:58:41;94975.59;;;31.49;39.27
12077;BME280;12420;42.676;23.262;2023-08-21T10:01:11;94965.13;;;31.56;39.82
12077;BME280;12420;42.676;23.262;2023-08-21T10:03:40;94955.94;;;31.60;38.54
12077;BME280;12420;42.676;23.262;2023-08-21T10:06:08;94946.72;;;31.41;38.80
12077;BME280;12420;42.676;23.262;2023-08-21T10:08:37;94940.25;;;31.61;37.92
12077;BME280;12420;42.676;23.262;2023-08-21T10:11:06;94933.38;;;31.70;37.34
12077;BME280;12420;42.676;23.262;2023-08-21T10:13:35;94957.69;;;31.69;38.26
12077;BME280;12420;42.676;23.262;2023-08-21T10:16:04;94949.56;;;31.83;37.75
12077;BME280;12420;42.676;23.262;2023-08-21T10:18:34;94885.25;;;31.42;38.14
12077;BME280;12420;42.676;23.262;2023-08-21T10:21:12;94948.41;;;31.92;36.81
12077;BME280;12420;42.676;23.262;2023-08-21T10:23:40;94925.00;;;31.98;37.23
12077;BME280;12420;42.676;23.262;2023-08-21T10:26:09;94946.06;;;32.07;35.76
12077;BME280;12420;42.676;23.262;2023-08-21T10:28:50;94935.50;;;31.91;37.06
12077;BME280;12420;42.676;23.262;2023-08-21T10:31:34;94930.72;;;31.98;35.69
12077;BME280;12420;42.676;23.262;2023-08-21T10:34:04;94916.00;;;31.64;37.60
12077;BME280;12420;42.676;23.262;2023-08-21T10:39:36;94926.38;;;31.75;37.14
12077;BME280;12420;42.676;23.262;2023-08-21T10:42:08;94872.19;;;31.37;36.61
12077;BME280;12420;42.676;23.262;2023-08-21T10:44:38;94832.88;;;31.15;38.14
12077;BME280;12420;42.676;23.262;2023-08-21T10:47:15;94869.41;;;31.39;36.22
12077;BME280;12420;42.676;23.262;2023-08-21T10:49:45;94909.97;;;31.97;37.21
12077;BME280;12420;42.676;23.262;2023-08-21T10:52:12;94893.97;;;31.90;35.36
12077;BME280;12420;42.676;23.262;2023-08-21T10:54:45;94915.47;;;31.91;36.38
12077;BME280;12420;42.676;23.262;2023-08-21T10:57:16;94904.16;;;31.51;37.82
12077;BME280;12420;42.676;23.262;2023-08-21T10:59:55;94909.56;;;31.63;35.89
12077;BME280;12420;42.676;23.262;2023-08-21T11:02:22;94908.03;;;31.82;36.22
12077;BME280;12420;42.676;23.262;2023-08-21T11:04:52;94873.56;;;31.56;35.69
12077;BME280;12420;42.676;23.262;2023-08-21T11:07:20;94890.91;;;31.62;36.49
12077;BME280;12420;42.676;23.262;2023-08-21T11:09:50;94840.09;;;31.61;35.57
12077;BME280;12420;42.676;23.262;2023-08-21T11:12:22;94882.81;;;32.22;35.14
12077;BME280;12420;42.676;23.262;2023-08-21T11:14:49;94883.13;;;32.33;35.07
12077;BME280;12420;42.676;23.262;2023-08-21T11:17:17;94850.75;;;32.28;34.41
12077;BME280;12420;42.676;23.262;2023-08-21T11:19:44;94893.91;;;32.82;32.91
12077;BME280;12420;42.676;23.262;2023-08-21T11:22:13;94829.88;;;31.99;34.27
12077;BME280;12420;42.676;23.262;2023-08-21T11:24:42;94841.50;;;32.30;32.28
12077;BME280;12420;42.676;23.262;2023-08-21T11:27:10;94889.41;;;32.75;31.45
12077;BME280;12420;42.676;23.262;2023-08-21T11:29:39;94885.06;;;32.74;31.73
12077;BME280;12420;42.676;23.262;2023-08-21T11:32:12;94871.25;;;32.93;31.03
12077;BME280;12420;42.676;23.262;2023-08-21T11:34:40;94861.13;;;32.90;31.48
12077;BME280;12420;42.676;23.262;2023-08-21T11:37:07;94856.91;;;32.93;31.29
12077;BME280;12420;42.676;23.262;2023-08-21T11:39:53;94874.56;;;33.09;32.09
12077;BME280;12420;42.676;23.262;2023-08-21T11:42:22;94873.91;;;33.11;31.42
12077;BME280;12420;42.676;23.262;2023-08-21T11:44:50;94872.88;;;33.26;31.38
12077;BME280;12420;42.676;23.262;2023-08-21T11:47:18;94851.13;;;32.91;30.85
12077;BME280;12420;42.676;23.262;2023-08-21T11:49:47;94853.72;;;32.80;30.49
12077;BME280;12420;42.676;23.262;2023-08-21T11:52:18;94859.66;;;32.89;30.33
12077;BME280;12420;42.676;23.262;2023-08-21T11:54:48;94874.78;;;32.65;29.82
12077;BME280;12420;42.676;23.262;2023-08-21T11:57:15;94860.69;;;32.73;30.10
12077;BME280;12420;42.676;23.262;2023-08-21T11:59:42;94856.47;;;32.76;30.13
12077;BME280;12420;42.676;23.262;2023-08-21T12:02:14;94864.56;;;32.84;31.29
12077;BME280;12420;42.676;23.262;2023-08-21T12:04:41;94857.78;;;32.99;32.02
12077;BME280;12420;42.676;23.262;2023-08-21T12:07:08;94862.22;;;33.02;29.07
12077;BME280;12420;42.676;23.262;2023-08-21T12:09:35;94864.34;;;33.02;29.93
12077;BME280;12420;42.676;23.262;2023-08-21T12:12:04;94860.97;;;33.10;29.99
12077;BME280;12420;42.676;23.262;2023-08-21T12:14:34;94822.06;;;32.76;30.36
12077;BME280;12420;42.676;23.262;2023-08-21T12:17:06;94855.34;;;33.14;30.23
12077;BME280;12420;42.676;23.262;2023-08-21T12:19:33;94862.66;;;33.19;29.94
12077;BME280;12420;42.676;23.262;2023-08-21T12:22:00;94867.22;;;33.30;29.71
12077;BME280;12420;42.676;23.262;2023-08-21T12:24:27;94850.81;;;33.33;28.64
12077;BME280;12420;42.676;23.262;2023-08-21T12:26:54;94851.69;;;33.39;29.39
12077;BME280;12420;42.676;23.262;2023-08-21T12:29:22;94856.06;;;33.42;28.48
12077;BME280;12420;42.676;23.262;2023-08-21T12:31:49;94846.44;;;33.29;29.71
12077;BME280;12420;42.676;23.262;2023-08-21T12:34:16;94850.84;;;33.35;29.52
12077;BME280;12420;42.676;23.262;2023-08-21T12:36:43;94842.41;;;33.41;29.27
12077;BME280;12420;42.676;23.262;2023-08-21T12:39:11;94829.63;;;33.46;28.74
12077;BME280;12420;42.676;23.262;2023-08-21T12:41:39;94840.81;;;33.34;29.03
12077;BME280;12420;42.676;23.262;2023-08-21T12:44:06;94820.09;;;33.37;29.60
12077;BME280;12420;42.676;23.262;2023-08-21T12:46:35;94791.31;;;32.79;30.08
12077;BME280;12420;42.676;23.262;2023-08-21T12:49:02;94823.38;;;32.99;30.70
12077;BME280;12420;42.676;23.262;2023-08-21T12:51:30;94807.97;;;33.13;29.96
12077;BME280;12420;42.676;23.262;2023-08-21T12:53:57;94823.38;;;33.25;30.18
12077;BME280;12420;42.676;23.262;2023-08-21T12:56:24;94807.13;;;33.06;29.92
12077;BME280;12420;42.676;23.262;2023-08-21T12:58:51;94826.72;;;33.16;29.49